sensor_id;sensor_type;location;lat;lon;timestamp;P1;durP1;ratioP1;P2;durP2;ratioP2
18883;SDS011;9574;47.282;9.640;2024-02-21T00:00:47;2.70;;;1.10;;
18883;SDS011;9574;47.282;9.640;2024-02-21T00:03:15;1.33;;;1.23;;
18883;SDS011;9574;47.282;9.640;2024-02-21T00:05:42;3.63;;;1.07;;
18883;SDS011;9574;47.282;9.640;2024-02-21T00:08:09;0.87;;;0.80;;
18883;SDS011;9574;47.282;9.640;2024-02-21T00:10:36;0.97;;;0.97;;
18883;SDS011;9574;47.282;9.640;2024-02-21T00:13:03;0.70;;;0.70;;
18883;SDS011;9574;47.282;9.640;2024-02-21T00:15:30;1.43;;;1.27;;
18883;SDS011;9574;47.282;9.640;2024-02-21T00:17:57;1.97;;;1.10;;
18883;SDS011;9574;47.282;9.640;2024-02-21T00:20:25;1.70;;;1.40;;
18883;SDS011;9574;47.282;9.640;2024-02-21T00:22:52;1.40;;;1.30;;
18883;SDS011;9574;47.282;9.640;2024-02-21T00:25:19;1.33;;;0.90;;
18883;SDS011;9574;47.282;9.640;2024-02-21T00:27:46;3.33;;;0.90;;
18883;SDS011;9574;47.282;9.640;2024-02-21T00:30:13;1.23;;;1.13;;
18883;SDS011;9574;47.282;9.640;2024-02-21T00:32:40;1.07;;;0.73;;
18883;SDS011;9574;47.282;9.640;2024-02-21T00:35:08;1.37;;;0.90;;
18883;SDS011;9574;47.282;9.640;2024-02-21T00:37:36;1.00;;;0.80;;
18883;SDS011;9574;47.282;9.640;2024-02-21T00:40:03;0.70;;;0.70;;
18883;SDS011;9574;47.282;9.640;2024-02-21T00:42:31;2.30;;;1.00;;
18883;SDS011;9574;47.282;9.640;2024-02-21T00:44:58;1.13;;;1.00;;
18883;SDS011;9574;47.282;9.640;2024-02-21T00:47:25;1.63;;;1.20;;
18883;SDS011;9574;47.282;9.640;2024-02-21T00:49:52;1.07;;;0.80;;
18883;SDS011;9574;47.282;9.640;2024-02-21T00:52:19;0.70;;;0.70;;
18883;SDS011;9574;47.282;9.640;2024-02-21T00:54:47;1.80;;;1.10;;
18883;SDS011;9574;47.282;9.640;2024-02-21T00:57:15;2.67;;;1.10;;
18883;SDS011;9574;47.282;9.640;2024-02-21T00:59:41;0.90;;;0.90;;
18883;SDS011;9574;47.282;9.640;2024-02-21T01:02:08;0.63;;;0.63;;
18883;SDS011;9574;47.282;9.640;2024-02-21T01:04:35;0.70;;;0.70;;
18883;SDS011;9574;47.282;9.640;2024-02-21T01:07:02;1.17;;;1.00;;
18883;SDS011;9574;47.282;9.640;2024-02-21T01:09:29;1.43;;;1.33;;
18883;SDS011;9574;47.282;9.640;2024-02-21T01:11:58;2.03;;;1.30;;
18883;SDS011;9574;47.282;9.640;2024-02-21T01:14:25;0.80;;;0.80;;
18883;SDS011;9574;47.282;9.640;2024-02-21T01:16:52;3.80;;;1.33;;
18883;SDS011;9574;47.282;9.640;2024-02-21T01:19:18;1.20;;;1.10;;
18883;SDS011;9574;47.282;9.640;2024-02-21T01:21:45;1.13;;;1.00;;
18883;SDS011;9574;47.282;9.640;2024-02-21T01:24:12;1.07;;;1.03;;
18883;SDS011;9574;47.282;9.640;2024-02-21T01:26:40;2.60;;;1.77;;
18883;SDS011;9574;47.282;9.640;2024-02-21T01:29:08;5.20;;;3.67;;
18883;SDS011;9574;47.282;9.640;2024-02-21T01:31:35;2.30;;;1.17;;
18883;SDS011;9574;47.282;9.640;2024-02-21T01:34:02;2.07;;;1.23;;
18883;SDS011;9574;47.282;9.640;2024-02-21T01:36:29;1.20;;;1.10;;
18883;SDS011;9574;47.282;9.640;2024-02-21T01:38:56;2.13;;;1.27;;
18883;SDS011;9574;47.282;9.640;2024-02-21T01:41:23;1.73;;;0.87;;
18883;SDS011;9574;47.282;9.640;2024-02-21T01:43:50;1.80;;;0.80;;
18883;SDS011;9574;47.282;9.640;2024-02-21T01:46:19;1.53;;;1.10;;
18883;SDS011;9574;47.282;9.640;2024-02-21T01:48:46;0.80;;;0.80;;
18883;SDS011;9574;47.282;9.640;2024-02-21T01:51:13;1.27;;;0.90;;
18883;SDS011;9574;47.282;9.640;2024-02-21T01:53:42;1.60;;;0.80;;
18883;SDS011;9574;47.282;9.640;2024-02-21T01:56:09;1.63;;;1.00;;
18883;SDS011;9574;47.282;9.640;2024-02-21T01:58:39;0.87;;;0.87;;
18883;SDS011;9574;47.282;9.640;2024-02-21T02:01:08;0.90;;;0.80;;
18883;SDS011;9574;47.282;9.640;2024-02-21T02:03:37;0.90;;;0.90;;
18883;SDS011;9574;47.282;9.640;2024-02-21T02:06:04;2.27;;;1.47;;
18883;SDS011;9574;47.282;9.640;2024-02-21T02:08:32;1.20;;;1.00;;
18883;SDS011;9574;47.282;9.640;2024-02-21T02:10:59;1.93;;;0.77;;
18883;SDS011;9574;47.282;9.640;2024-02-21T02:13:26;1.23;;;0.97;;
18883;SDS011;9574;47.282;9.640;2024-02-21T02:15:54;1.07;;;0.97;;
18883;SDS011;9574;47.282;9.640;2024-02-21T02:18:21;1.33;;;0.90;;
18883;SDS011;9574;47.282;9.640;2024-02-21T02:20:49;0.80;;;0.80;;
18883;SDS011;9574;47.282;9.640;2024-02-21T02:23:20;0.90;;;0.90;;
18883;SDS011;9574;47.282;9.640;2024-02-21T02:25:49;0.80;;;0.80;;
18883;SDS011;9574;47.282;9.640;2024-02-21T02:28:17;1.37;;;1.00;;
18883;SDS011;9574;47.282;9.640;2024-02-21T02:30:44;2.93;;;2.23;;
18883;SDS011;9574;47.282;9.640;2024-02-21T02:33:11;1.33;;;1.10;;
18883;SDS011;9574;47.282;9.640;2024-02-21T02:35:38;0.93;;;0.77;;
18883;SDS011;9574;47.282;9.640;2024-02-21T02:38:06;1.10;;;0.90;;
18883;SDS011;9574;47.282;9.640;2024-02-21T02:40:34;0.70;;;0.70;;
18883;SDS011;9574;47.282;9.640;2024-02-21T02:43:01;0.80;;;0.80;;
18883;SDS011;9574;47.282;9.640;2024-02-21T02:45:28;1.80;;;0.80;;
18883;SDS011;9574;47.282;9.640;2024-02-21T02:47:56;0.90;;;0.70;;
18883;SDS011;9574;47.282;9.640;2024-02-21T02:50:23;1.27;;;0.80;;
18883;SDS011;9574;47.282;9.640;2024-02-21T02:52:51;1.40;;;0.80;;
18883;SDS011;9574;47.282;9.640;2024-02-21T02:55:18;2.00;;;0.90;;
18883;SDS011;9574;47.282;9.640;2024-02-21T02:57:46;2.30;;;1.30;;
18883;SDS011;9574;47.282;9.640;2024-02-21T03:00:14;0.93;;;0.90;;
18883;SDS011;9574;47.282;9.640;2024-02-21T03:02:42;1.57;;;1.27;;
18883;SDS011;9574;47.282;9.640;2024-02-21T03:05:13;1.67;;;1.00;;
18883;SDS011;9574;47.282;9.640;2024-02-21T03:07:41;1.10;;;0.87;;
18883;SDS011;9574;47.282;9.640;2024-02-21T03:10:08;1.67;;;0.90;;
18883;SDS011;9574;47.282;9.640;2024-02-21T03:12:35;1.03;;;0.70;;
18883;SDS011;9574;47.282;9.640;2024-02-21T03:15:04;0.97;;;0.70;;
18883;SDS011;9574;47.282;9.640;2024-02-21T03:17:31;0.60;;;0.60;;
18883;SDS011;9574;47.282;9.640;2024-02-21T03:19:59;0.60;;;0.60;;
18883;SDS011;9574;47.282;9.640;2024-02-21T03:22:26;0.70;;;0.67;;
18883;SDS011;9574;47.282;9.640;2024-02-21T03:24:53;0.60;;;0.60;;
18883;SDS011;9574;47.282;9.640;2024-02-21T03:27:20;1.10;;;1.00;;
18883;SDS011;9574;47.282;9.640;2024-02-21T03:29:47;1.53;;;0.87;;
18883;SDS011;9574;47.282;9.640;2024-02-21T03:32:15;0.70;;;0.53;;
18883;SDS011;9574;47.282;9.640;2024-02-21T03:34:42;0.70;;;0.70;;
18883;SDS011;9574;47.282;9.640;2024-02-21T03:37:09;0.80;;;0.80;;
18883;SDS011;9574;47.282;9.640;2024-02-21T03:39:36;1.67;;;1.10;;
18883;SDS011;9574;47.282;9.640;2024-02-21T03:42:03;1.87;;;1.00;;
18883;SDS011;9574;47.282;9.640;2024-02-21T03:44:31;0.70;;;0.70;;
18883;SDS011;9574;47.282;9.640;2024-02-21T03:46:58;3.00;;;0.73;;
18883;SDS011;9574;47.282;9.640;2024-02-21T03:49:27;3.07;;;0.63;;
18883;SDS011;9574;47.282;9.640;2024-02-21T03:51:54;0.70;;;0.70;;
18883;SDS011;9574;47.282;9.640;2024-02-21T03:54:21;1.60;;;0.83;;
18883;SDS011;9574;47.282;9.640;2024-02-21T03:56:48;0.60;;;0.60;;
18883;SDS011;9574;47.282;9.640;2024-02-21T03:59:15;0.67;;;0.60;;
18883;SDS011;9574;47.282;9.640;2024-02-21T04:01:42;0.70;;;0.70;;
18883;SDS011;9574;47.282;9.640;2024-02-21T04:04:09;1.37;;;0.70;;
18883;SDS011;9574;47.282;9.640;2024-02-21T04:06:38;1.93;;;0.90;;
18883;SDS011;9574;47.282;9.640;2024-02-21T04:09:12;0.80;;;0.80;;
18883;SDS011;9574;47.282;9.640;2024-02-21T04:11:39;2.03;;;0.80;;
18883;SDS011;9574;47.282;9.640;2024-02-21T04:14:06;1.07;;;1.07;;
18883;SDS011;9574;47.282;9.640;2024-02-21T04:16:33;1.23;;;0.93;;
18883;SDS011;9574;47.282;9.640;2024-02-21T04:19:01;0.80;;;0.70;;
18883;SDS011;9574;47.282;9.640;2024-02-21T04:21:28;0.80;;;0.80;;
18883;SDS011;9574;47.282;9.640;2024-02-21T04:23:56;1.00;;;0.90;;
18883;SDS011;9574;47.282;9.640;2024-02-21T04:26:23;0.97;;;0.80;;
18883;SDS011;9574;47.282;9.640;2024-02-21T04:28:50;3.33;;;0.93;;
18883;SDS011;9574;47.282;9.640;2024-02-21T04:31:17;0.77;;;0.70;;
18883;SDS011;9574;47.282;9.640;2024-02-21T04:33:44;1.23;;;0.73;;
18883;SDS011;9574;47.282;9.640;2024-02-21T04:36:11;1.30;;;0.80;;
18883;SDS011;9574;47.282;9.640;2024-02-21T04:38:38;0.80;;;0.70;;
18883;SDS011;9574;47.282;9.640;2024-02-21T04:41:07;0.87;;;0.70;;
18883;SDS011;9574;47.282;9.640;2024-02-21T04:43:34;1.20;;;0.70;;
18883;SDS011;9574;47.282;9.640;2024-02-21T04:46:01;3.47;;;1.53;;
18883;SDS011;9574;47.282;9.640;2024-02-21T04:48:28;1.33;;;0.90;;
18883;SDS011;9574;47.282;9.640;2024-02-21T04:50:55;1.57;;;1.00;;
18883;SDS011;9574;47.282;9.640;2024-02-21T04:53:22;0.60;;;0.60;;
18883;SDS011;9574;47.282;9.640;2024-02-21T04:55:49;0.90;;;0.70;;
18883;SDS011;9574;47.282;9.640;2024-02-21T04:58:17;0.73;;;0.73;;
18883;SDS011;9574;47.282;9.640;2024-02-21T05:00:44;1.40;;;0.80;;
18883;SDS011;9574;47.282;9.640;2024-02-21T05:03:11;1.23;;;0.90;;
18883;SDS011;9574;47.282;9.640;2024-02-21T05:05:38;0.90;;;0.90;;
18883;SDS011;9574;47.282;9.640;2024-02-21T05:08:05;4.10;;;0.80;;
18883;SDS011;9574;47.282;9.640;2024-02-21T05:10:32;0.83;;;0.83;;
18883;SDS011;9574;47.282;9.640;2024-02-21T05:12:59;0.83;;;0.83;;
18883;SDS011;9574;47.282;9.640;2024-02-21T05:15:27;0.90;;;0.90;;
18883;SDS011;9574;47.282;9.640;2024-02-21T05:17:54;1.40;;;1.30;;
18883;SDS011;9574;47.282;9.640;2024-02-21T05:20:21;1.90;;;1.80;;
18883;SDS011;9574;47.282;9.640;2024-02-21T05:22:48;1.87;;;1.60;;
18883;SDS011;9574;47.282;9.640;2024-02-21T05:25:15;4.07;;;1.50;;
18883;SDS011;9574;47.282;9.640;2024-02-21T05:27:42;3.87;;;0.90;;
18883;SDS011;9574;47.282;9.640;2024-02-21T05:30:09;0.90;;;0.83;;
18883;SDS011;9574;47.282;9.640;2024-02-21T05:32:38;1.00;;;0.87;;
18883;SDS011;9574;47.282;9.640;2024-02-21T05:35:05;0.70;;;0.70;;
18883;SDS011;9574;47.282;9.640;2024-02-21T05:37:32;0.87;;;0.87;;
18883;SDS011;9574;47.282;9.640;2024-02-21T05:39:59;0.70;;;0.70;;
18883;SDS011;9574;47.282;9.640;2024-02-21T05:42:26;0.80;;;0.70;;
18883;SDS011;9574;47.282;9.640;2024-02-21T05:44:53;1.90;;;1.80;;
18883;SDS011;9574;47.282;9.640;2024-02-21T05:47:20;1.80;;;1.70;;
18883;SDS011;9574;47.282;9.640;2024-02-21T05:49:48;1.20;;;1.10;;
18883;SDS011;9574;47.282;9.640;2024-02-21T05:52:18;1.37;;;1.23;;
18883;SDS011;9574;47.282;9.640;2024-02-21T05:54:45;0.87;;;0.87;;
18883;SDS011;9574;47.282;9.640;2024-02-21T05:57:12;0.87;;;0.87;;
18883;SDS011;9574;47.282;9.640;2024-02-21T05:59:39;0.90;;;0.90;;
18883;SDS011;9574;47.282;9.640;2024-02-21T06:02:07;1.30;;;1.00;;
18883;SDS011;9574;47.282;9.640;2024-02-21T06:04:34;1.67;;;0.90;;
18883;SDS011;9574;47.282;9.640;2024-02-21T06:07:02;0.70;;;0.70;;
18883;SDS011;9574;47.282;9.640;2024-02-21T06:09:29;2.67;;;0.63;;
18883;SDS011;9574;47.282;9.640;2024-02-21T06:11:57;1.40;;;0.63;;
18883;SDS011;9574;47.282;9.640;2024-02-21T06:14:24;0.60;;;0.60;;
18883;SDS011;9574;47.282;9.640;2024-02-21T06:16:50;0.60;;;0.60;;
18883;SDS011;9574;47.282;9.640;2024-02-21T06:19:17;1.10;;;0.80;;
18883;SDS011;9574;47.282;9.640;2024-02-21T06:21:44;0.60;;;0.60;;
18883;SDS011;9574;47.282;9.640;2024-02-21T06:24:13;0.60;;;0.60;;
18883;SDS011;9574;47.282;9.640;2024-02-21T06:26:40;0.93;;;0.77;;
18883;SDS011;9574;47.282;9.640;2024-02-21T06:29:07;0.80;;;0.60;;
18883;SDS011;9574;47.282;9.640;2024-02-21T06:31:34;1.57;;;0.80;;
18883;SDS011;9574;47.282;9.640;2024-02-21T06:34:02;1.17;;;0.80;;
18883;SDS011;9574;47.282;9.640;2024-02-21T06:36:29;1.03;;;0.80;;
18883;SDS011;9574;47.282;9.640;2024-02-21T06:38:56;0.83;;;0.70;;
18883;SDS011;9574;47.282;9.640;2024-02-21T06:41:25;0.87;;;0.87;;
18883;SDS011;9574;47.282;9.640;2024-02-21T06:43:52;1.53;;;1.30;;
18883;SDS011;9574;47.282;9.640;2024-02-21T06:46:22;1.53;;;1.10;;
18883;SDS011;9574;47.282;9.640;2024-02-21T06:48:50;1.40;;;0.90;;
18883;SDS011;9574;47.282;9.640;2024-02-21T06:51:17;1.10;;;1.00;;
18883;SDS011;9574;47.282;9.640;2024-02-21T06:53:44;1.63;;;1.03;;
18883;SDS011;9574;47.282;9.640;2024-02-21T06:56:11;2.90;;;1.00;;
18883;SDS011;9574;47.282;9.640;2024-02-21T06:58:40;0.80;;;0.80;;
18883;SDS011;9574;47.282;9.640;2024-02-21T07:01:07;1.70;;;1.00;;
18883;SDS011;9574;47.282;9.640;2024-02-21T07:03:34;1.07;;;0.97;;
18883;SDS011;9574;47.282;9.640;2024-02-21T07:06:02;1.27;;;1.03;;
18883;SDS011;9574;47.282;9.640;2024-02-21T07:08:29;3.67;;;0.87;;
18883;SDS011;9574;47.282;9.640;2024-02-21T07:10:56;1.10;;;1.00;;
18883;SDS011;9574;47.282;9.640;2024-02-21T07:13:23;0.80;;;0.80;;
18883;SDS011;9574;47.282;9.640;2024-02-21T07:15:51;2.17;;;1.10;;
18883;SDS011;9574;47.282;9.640;2024-02-21T07:18:18;2.43;;;1.20;;
18883;SDS011;9574;47.282;9.640;2024-02-21T07:20:46;1.47;;;1.30;;
18883;SDS011;9574;47.282;9.640;2024-02-21T07:23:13;2.13;;;1.10;;
18883;SDS011;9574;47.282;9.640;2024-02-21T07:25:40;5.53;;;1.20;;
18883;SDS011;9574;47.282;9.640;2024-02-21T07:28:07;5.47;;;2.40;;
18883;SDS011;9574;47.282;9.640;2024-02-21T07:30:34;5.33;;;3.03;;
18883;SDS011;9574;47.282;9.640;2024-02-21T07:33:03;4.97;;;2.40;;
18883;SDS011;9574;47.282;9.640;2024-02-21T07:35:32;2.93;;;1.40;;
18883;SDS011;9574;47.282;9.640;2024-02-21T07:37:59;1.80;;;1.23;;
18883;SDS011;9574;47.282;9.640;2024-02-21T07:40:26;1.80;;;1.27;;
18883;SDS011;9574;47.282;9.640;2024-02-21T07:42:53;1.93;;;1.20;;
18883;SDS011;9574;47.282;9.640;2024-02-21T07:45:21;1.77;;;1.10;;
18883;SDS011;9574;47.282;9.640;2024-02-21T07:47:49;1.80;;;1.00;;
18883;SDS011;9574;47.282;9.640;2024-02-21T07:50:17;3.50;;;1.70;;
18883;SDS011;9574;47.282;9.640;2024-02-21T07:52:44;1.63;;;1.30;;
18883;SDS011;9574;47.282;9.640;2024-02-21T07:55:11;2.33;;;1.47;;
18883;SDS011;9574;47.282;9.640;2024-02-21T07:57:38;1.77;;;1.10;;
18883;SDS011;9574;47.282;9.640;2024-02-21T08:00:06;1.43;;;1.20;;
18883;SDS011;9574;47.282;9.640;2024-02-21T08:02:34;2.30;;;1.30;;
18883;SDS011;9574;47.282;9.640;2024-02-21T08:05:03;1.50;;;1.20;;
18883;SDS011;9574;47.282;9.640;2024-02-21T08:07:31;2.53;;;1.07;;
18883;SDS011;9574;47.282;9.640;2024-02-21T08:09:58;1.10;;;1.10;;
18883;SDS011;9574;47.282;9.640;2024-02-21T08:12:25;2.10;;;1.30;;
18883;SDS011;9574;47.282;9.640;2024-02-21T08:14:52;1.10;;;1.07;;
18883;SDS011;9574;47.282;9.640;2024-02-21T08:17:19;1.13;;;0.80;;
18883;SDS011;9574;47.282;9.640;2024-02-21T08:19:46;1.57;;;1.40;;
18883;SDS011;9574;47.282;9.640;2024-02-21T08:22:14;1.20;;;1.10;;
18883;SDS011;9574;47.282;9.640;2024-02-21T08:24:43;1.57;;;1.20;;
18883;SDS011;9574;47.282;9.640;2024-02-21T08:27:10;5.73;;;1.30;;
18883;SDS011;9574;47.282;9.640;2024-02-21T08:29:37;3.57;;;1.00;;
18883;SDS011;9574;47.282;9.640;2024-02-21T08:32:04;1.97;;;0.97;;
18883;SDS011;9574;47.282;9.640;2024-02-21T08:34:31;1.30;;;0.80;;
18883;SDS011;9574;47.282;9.640;2024-02-21T08:36:59;3.70;;;1.47;;
18883;SDS011;9574;47.282;9.640;2024-02-21T08:39:26;4.83;;;1.40;;
18883;SDS011;9574;47.282;9.640;2024-02-21T08:41:56;2.03;;;1.00;;
18883;SDS011;9574;47.282;9.640;2024-02-21T08:44:23;1.00;;;0.87;;
18883;SDS011;9574;47.282;9.640;2024-02-21T08:46:51;1.50;;;0.77;;
18883;SDS011;9574;47.282;9.640;2024-02-21T08:49:18;1.50;;;1.03;;
18883;SDS011;9574;47.282;9.640;2024-02-21T08:51:45;3.33;;;0.90;;
18883;SDS011;9574;47.282;9.640;2024-02-21T08:54:12;1.20;;;0.97;;
18883;SDS011;9574;47.282;9.640;2024-02-21T08:56:39;0.80;;;0.70;;
18883;SDS011;9574;47.282;9.640;2024-02-21T08:59:08;2.33;;;1.40;;
18883;SDS011;9574;47.282;9.640;2024-02-21T09:01:35;3.47;;;1.53;;
18883;SDS011;9574;47.282;9.640;2024-02-21T09:04:02;1.70;;;1.20;;
18883;SDS011;9574;47.282;9.640;2024-02-21T09:06:30;1.97;;;1.07;;
18883;SDS011;9574;47.282;9.640;2024-02-21T09:08:58;2.53;;;0.87;;
18883;SDS011;9574;47.282;9.640;2024-02-21T09:11:25;1.90;;;0.90;;
18883;SDS011;9574;47.282;9.640;2024-02-21T09:13:53;1.07;;;0.80;;
18883;SDS011;9574;47.282;9.640;2024-02-21T09:16:22;2.63;;;0.90;;
18883;SDS011;9574;47.282;9.640;2024-02-21T09:18:49;1.13;;;1.03;;
18883;SDS011;9574;47.282;9.640;2024-02-21T09:21:18;3.90;;;1.73;;
18883;SDS011;9574;47.282;9.640;2024-02-21T09:23:45;3.90;;;0.80;;
18883;SDS011;9574;47.282;9.640;2024-02-21T09:26:12;1.10;;;0.70;;
18883;SDS011;9574;47.282;9.640;2024-02-21T09:28:42;2.17;;;0.73;;
18883;SDS011;9574;47.282;9.640;2024-02-21T09:31:09;0.70;;;0.70;;
18883;SDS011;9574;47.282;9.640;2024-02-21T09:33:37;2.83;;;0.67;;
18883;SDS011;9574;47.282;9.640;2024-02-21T09:36:05;1.40;;;0.83;;
18883;SDS011;9574;47.282;9.640;2024-02-21T09:38:32;3.43;;;0.80;;
18883;SDS011;9574;47.282;9.640;2024-02-21T09:41:00;1.20;;;0.70;;
18883;SDS011;9574;47.282;9.640;2024-02-21T09:43:42;1.60;;;1.00;;
18883;SDS011;9574;47.282;9.640;2024-02-21T09:46:13;0.73;;;0.70;;
18883;SDS011;9574;47.282;9.640;2024-02-21T09:48:47;2.57;;;1.00;;
18883;SDS011;9574;47.282;9.640;2024-02-21T09:51:26;1.63;;;0.80;;
18883;SDS011;9574;47.282;9.640;2024-02-21T09:53:55;1.43;;;0.70;;
18883;SDS011;9574;47.282;9.640;2024-02-21T09:56:23;1.93;;;0.70;;
18883;SDS011;9574;47.282;9.640;2024-02-21T09:58:51;0.97;;;0.87;;
18883;SDS011;9574;47.282;9.640;2024-02-21T10:01:18;2.67;;;0.73;;
18883;SDS011;9574;47.282;9.640;2024-02-21T10:03:47;2.63;;;0.80;;
18883;SDS011;9574;47.282;9.640;2024-02-21T10:06:14;1.10;;;0.60;;
18883;SDS011;9574;47.282;9.640;2024-02-21T10:08:41;1.60;;;0.70;;
18883;SDS011;9574;47.282;9.640;2024-02-21T10:11:09;1.40;;;0.83;;
18883;SDS011;9574;47.282;9.640;2024-02-21T10:13:36;1.57;;;1.00;;
18883;SDS011;9574;47.282;9.640;2024-02-21T10:16:04;2.23;;;0.90;;
18883;SDS011;9574;47.282;9.640;2024-02-21T10:18:32;1.20;;;0.80;;
18883;SDS011;9574;47.282;9.640;2024-02-21T10:21:02;2.30;;;0.87;;
18883;SDS011;9574;47.282;9.640;2024-02-21T10:23:40;0.60;;;0.60;;
18883;SDS011;9574;47.282;9.640;2024-02-21T10:26:08;0.80;;;0.80;;
18883;SDS011;9574;47.282;9.640;2024-02-21T10:28:36;1.17;;;0.77;;
18883;SDS011;9574;47.282;9.640;2024-02-21T10:31:07;0.73;;;0.73;;
18883;SDS011;9574;47.282;9.640;2024-02-21T10:33:35;0.50;;;0.50;;
18883;SDS011;9574;47.282;9.640;2024-02-21T10:36:10;0.70;;;0.70;;
18883;SDS011;9574;47.282;9.640;2024-02-21T10:38:38;3.30;;;0.90;;
18883;SDS011;9574;47.282;9.640;2024-02-21T10:41:05;1.20;;;0.80;;
18883;SDS011;9574;47.282;9.640;2024-02-21T10:43:35;1.00;;;0.90;;
18883;SDS011;9574;47.282;9.640;2024-02-21T10:46:05;0.93;;;0.80;;
18883;SDS011;9574;47.282;9.640;2024-02-21T10:48:37;0.67;;;0.53;;
18883;SDS011;9574;47.282;9.640;2024-02-21T10:51:14;0.70;;;0.70;;
18883;SDS011;9574;47.282;9.640;2024-02-21T10:53:46;0.90;;;0.80;;
18883;SDS011;9574;47.282;9.640;2024-02-21T10:56:22;4.33;;;0.90;;
18883;SDS011;9574;47.282;9.640;2024-02-21T10:58:54;0.70;;;0.70;;
18883;SDS011;9574;47.282;9.640;2024-02-21T11:01:23;3.77;;;1.10;;
18883;SDS011;9574;47.282;9.640;2024-02-21T11:03:52;0.70;;;0.67;;
18883;SDS011;9574;47.282;9.640;2024-02-21T11:06:22;2.50;;;1.03;;
18883;SDS011;9574;47.282;9.640;2024-02-21T11:09:01;13.63;;;1.03;;
18883;SDS011;9574;47.282;9.640;2024-02-21T11:11:29;0.63;;;0.63;;
18883;SDS011;9574;47.282;9.640;2024-02-21T11:14:05;1.40;;;0.93;;
18883;SDS011;9574;47.282;9.640;2024-02-21T11:16:36;2.07;;;0.77;;
18883;SDS011;9574;47.282;9.640;2024-02-21T11:19:05;1.40;;;0.80;;
18883;SDS011;9574;47.282;9.640;2024-02-21T11:21:35;0.67;;;0.63;;
18883;SDS011;9574;47.282;9.640;2024-02-21T11:24:03;1.43;;;0.70;;
18883;SDS011;9574;47.282;9.640;2024-02-21T11:26:31;0.83;;;0.70;;
18883;SDS011;9574;47.282;9.640;2024-02-21T11:28:58;1.23;;;0.67;;
18883;SDS011;9574;47.282;9.640;2024-02-21T11:31:26;1.23;;;0.60;;
18883;SDS011;9574;47.282;9.640;2024-02-21T11:33:53;0.90;;;0.80;;
18883;SDS011;9574;47.282;9.640;2024-02-21T11:36:24;1.10;;;0.67;;
18883;SDS011;9574;47.282;9.640;2024-02-21T11:38:53;1.27;;;0.80;;
18883;SDS011;9574;47.282;9.640;2024-02-21T11:41:20;1.10;;;1.00;;
18883;SDS011;9574;47.282;9.640;2024-02-21T11:43:48;0.70;;;0.60;;
18883;SDS011;9574;47.282;9.640;2024-02-21T11:46:16;0.77;;;0.77;;
18883;SDS011;9574;47.282;9.640;2024-02-21T11:48:44;2.83;;;0.87;;
18883;SDS011;9574;47.282;9.640;2024-02-21T11:51:20;0.93;;;0.60;;
18883;SDS011;9574;47.282;9.640;2024-02-21T11:53:50;3.93;;;1.00;;
18883;SDS011;9574;47.282;9.640;2024-02-21T11:56:19;5.63;;;0.80;;
18883;SDS011;9574;47.282;9.640;2024-02-21T11:58:47;1.03;;;0.80;;
18883;SDS011;9574;47.282;9.640;2024-02-21T12:01:15;0.80;;;0.80;;
18883;SDS011;9574;47.282;9.640;2024-02-21T12:03:42;1.50;;;0.77;;
18883;SDS011;9574;47.282;9.640;2024-02-21T12:06:15;0.90;;;0.70;;
18883;SDS011;9574;47.282;9.640;2024-02-21T12:08:45;1.40;;;0.70;;
18883;SDS011;9574;47.282;9.640;2024-02-21T12:11:16;2.00;;;0.80;;
18883;SDS011;9574;47.282;9.640;2024-02-21T12:13:46;1.00;;;0.70;;
18883;SDS011;9574;47.282;9.640;2024-02-21T12:16:15;1.33;;;0.80;;
18883;SDS011;9574;47.282;9.640;2024-02-21T12:18:43;1.13;;;0.70;;
18883;SDS011;9574;47.282;9.640;2024-02-21T12:21:10;0.70;;;0.70;;
18883;SDS011;9574;47.282;9.640;2024-02-21T12:23:37;4.53;;;0.73;;
18883;SDS011;9574;47.282;9.640;2024-02-21T12:26:06;0.87;;;0.80;;
18883;SDS011;9574;47.282;9.640;2024-02-21T12:28:35;1.27;;;0.90;;
18883;SDS011;9574;47.282;9.640;2024-02-21T12:31:02;1.30;;;0.90;;
18883;SDS011;9574;47.282;9.640;2024-02-21T12:33:30;1.40;;;1.20;;
18883;SDS011;9574;47.282;9.640;2024-02-21T12:35:58;1.77;;;1.00;;
18883;SDS011;9574;47.282;9.640;2024-02-21T12:38:25;1.27;;;1.00;;
18883;SDS011;9574;47.282;9.640;2024-02-21T12:40:52;2.40;;;1.10;;
18883;SDS011;9574;47.282;9.640;2024-02-21T12:43:19;2.10;;;0.80;;
18883;SDS011;9574;47.282;9.640;2024-02-21T12:45:48;1.77;;;1.00;;
18883;SDS011;9574;47.282;9.640;2024-02-21T12:48:15;0.80;;;0.80;;
18883;SDS011;9574;47.282;9.640;2024-02-21T12:50:43;1.27;;;0.70;;
18883;SDS011;9574;47.282;9.640;2024-02-21T12:53:16;3.30;;;1.17;;
18883;SDS011;9574;47.282;9.640;2024-02-21T12:55:44;0.77;;;0.77;;
18883;SDS011;9574;47.282;9.640;2024-02-21T12:58:11;2.37;;;0.80;;
18883;SDS011;9574;47.282;9.640;2024-02-21T13:00:39;0.80;;;0.80;;
18883;SDS011;9574;47.282;9.640;2024-02-21T13:03:07;0.83;;;0.80;;
18883;SDS011;9574;47.282;9.640;2024-02-21T13:05:34;1.13;;;0.70;;
18883;SDS011;9574;47.282;9.640;2024-02-21T13:08:01;1.20;;;1.10;;
18883;SDS011;9574;47.282;9.640;2024-02-21T13:10:28;6.00;;;1.20;;
18883;SDS011;9574;47.282;9.640;2024-02-21T13:12:55;0.93;;;0.80;;
18883;SDS011;9574;47.282;9.640;2024-02-21T13:15:22;3.00;;;0.80;;
18883;SDS011;9574;47.282;9.640;2024-02-21T13:17:49;1.10;;;0.80;;
18883;SDS011;9574;47.282;9.640;2024-02-21T13:20:17;1.17;;;0.77;;
18883;SDS011;9574;47.282;9.640;2024-02-21T13:22:44;0.73;;;0.60;;
18883;SDS011;9574;47.282;9.640;2024-02-21T13:25:11;1.50;;;0.87;;
18883;SDS011;9574;47.282;9.640;2024-02-21T13:27:40;0.80;;;0.77;;
18883;SDS011;9574;47.282;9.640;2024-02-21T13:30:07;1.70;;;0.90;;
18883;SDS011;9574;47.282;9.640;2024-02-21T13:32:35;0.50;;;0.50;;
18883;SDS011;9574;47.282;9.640;2024-02-21T13:35:02;0.80;;;0.80;;
18883;SDS011;9574;47.282;9.640;2024-02-21T13:37:31;2.20;;;0.60;;
18883;SDS011;9574;47.282;9.640;2024-02-21T13:39:58;0.77;;;0.60;;
18883;SDS011;9574;47.282;9.640;2024-02-21T13:42:25;0.80;;;0.80;;
18883;SDS011;9574;47.282;9.640;2024-02-21T13:44:53;0.93;;;0.87;;
18883;SDS011;9574;47.282;9.640;2024-02-21T13:47:20;0.80;;;0.80;;
18883;SDS011;9574;47.282;9.640;2024-02-21T13:49:47;1.97;;;0.97;;
18883;SDS011;9574;47.282;9.640;2024-02-21T13:52:14;2.03;;;1.20;;
18883;SDS011;9574;47.282;9.640;2024-02-21T13:54:43;3.43;;;1.20;;
18883;SDS011;9574;47.282;9.640;2024-02-21T13:57:10;1.83;;;1.10;;
18883;SDS011;9574;47.282;9.640;2024-02-21T13:59:37;1.97;;;1.40;;
18883;SDS011;9574;47.282;9.640;2024-02-21T14:02:04;1.70;;;1.00;;
18883;SDS011;9574;47.282;9.640;2024-02-21T14:04:33;2.10;;;1.43;;
18883;SDS011;9574;47.282;9.640;2024-02-21T14:07:00;1.50;;;1.30;;
18883;SDS011;9574;47.282;9.640;2024-02-21T14:09:27;1.47;;;1.33;;
18883;SDS011;9574;47.282;9.640;2024-02-21T14:11:56;1.97;;;1.50;;
18883;SDS011;9574;47.282;9.640;2024-02-21T14:14:23;1.53;;;1.23;;
18883;SDS011;9574;47.282;9.640;2024-02-21T14:16:50;2.03;;;1.50;;
18883;SDS011;9574;47.282;9.640;2024-02-21T14:19:17;2.00;;;1.60;;
18883;SDS011;9574;47.282;9.640;2024-02-21T14:21:44;1.40;;;1.30;;
18883;SDS011;9574;47.282;9.640;2024-02-21T14:24:11;2.03;;;1.70;;
18883;SDS011;9574;47.282;9.640;2024-02-21T14:26:38;2.90;;;1.90;;
18883;SDS011;9574;47.282;9.640;2024-02-21T14:29:07;2.73;;;1.70;;
18883;SDS011;9574;47.282;9.640;2024-02-21T14:31:34;5.27;;;2.10;;
18883;SDS011;9574;47.282;9.640;2024-02-21T14:34:01;3.97;;;2.40;;
18883;SDS011;9574;47.282;9.640;2024-02-21T14:36:28;9.13;;;5.33;;
18883;SDS011;9574;47.282;9.640;2024-02-21T14:38:55;5.77;;;2.60;;
18883;SDS011;9574;47.282;9.640;2024-02-21T14:41:22;4.97;;;1.60;;
18883;SDS011;9574;47.282;9.640;2024-02-21T14:43:50;3.93;;;2.47;;
18883;SDS011;9574;47.282;9.640;2024-02-21T14:46:22;7.97;;;2.30;;
18883;SDS011;9574;47.282;9.640;2024-02-21T14:48:49;6.50;;;3.57;;
18883;SDS011;9574;47.282;9.640;2024-02-21T14:51:17;6.00;;;3.63;;
18883;SDS011;9574;47.282;9.640;2024-02-21T14:53:44;6.47;;;3.23;;
18883;SDS011;9574;47.282;9.640;2024-02-21T14:56:12;3.43;;;2.60;;
18883;SDS011;9574;47.282;9.640;2024-02-21T14:58:40;6.40;;;2.50;;
18883;SDS011;9574;47.282;9.640;2024-02-21T15:01:07;3.73;;;3.00;;
18883;SDS011;9574;47.282;9.640;2024-02-21T15:03:36;3.27;;;2.20;;